createdAt,value
2023-05-15T00:00:00.685Z,3.00
2023-05-15T00:02:36.702Z,3.17
2023-05-15T00:05:10.952Z,2.75
2023-05-15T00:07:39.442Z,2.80
2023-05-15T00:10:08.125Z,3.30
2023-05-15T00:12:37.152Z,2.97
2023-05-15T00:15:05.649Z,2.92
2023-05-15T00:17:34.865Z,2.70
2023-05-15T00:20:02.721Z,2.78
2023-05-15T00:22:32.560Z,2.85
2023-05-15T00:25:00.480Z,2.72
2023-05-15T00:27:28.735Z,2.67
2023-05-15T00:29:56.699Z,2.80
2023-05-15T00:32:24.874Z,2.70
2023-05-15T00:34:53.673Z,3.10
2023-05-15T00:37:21.842Z,2.35
2023-05-15T00:39:50.835Z,2.47
2023-05-15T00:42:19.755Z,2.33
2023-05-15T00:44:49.306Z,2.80
2023-05-15T00:47:19.404Z,2.58
2023-05-15T00:49:53.136Z,2.38
2023-05-15T00:52:23.357Z,2.55
2023-05-15T00:54:51.240Z,2.60
2023-05-15T00:57:21.855Z,2.35
2023-05-15T00:59:52.904Z,2.50
2023-05-15T01:02:21.509Z,2.13
2023-05-15T01:04:50.245Z,2.13
2023-05-15T01:07:19.912Z,2.05
2023-05-15T01:09:49.830Z,2.20
2023-05-15T01:12:20.167Z,2.30
2023-05-15T01:14:49.650Z,2.20
2023-05-15T01:17:17.831Z,2.15
2023-05-15T01:19:49.950Z,2.20
2023-05-15T01:22:40.164Z,2.17
2023-05-15T01:25:20.286Z,1.67
2023-05-15T01:28:01.609Z,2.10
2023-05-15T01:30:36.039Z,1.70
2023-05-15T01:33:13.669Z,1.83
2023-05-15T01:35:56.261Z,1.70
2023-05-15T01:38:48.145Z,1.80
2023-05-15T01:41:32.053Z,1.85
2023-05-15T01:44:09.184Z,1.83
2023-05-15T01:46:43.405Z,1.67
2023-05-15T01:49:14.295Z,1.73
2023-05-15T01:51:44.746Z,1.70
2023-05-15T01:54:15.276Z,1.80
2023-05-15T01:56:46.260Z,1.70
2023-05-15T01:59:16.904Z,1.70
2023-05-15T02:01:47.077Z,2.08
2023-05-15T02:04:16.880Z,1.52
2023-05-15T02:06:45.044Z,1.70
2023-05-15T02:09:15.291Z,1.45
2023-05-15T02:11:43.638Z,1.73
2023-05-15T02:14:13.535Z,1.50
2023-05-15T02:16:41.678Z,1.50
2023-05-15T02:19:10.198Z,1.60
2023-05-15T02:21:38.022Z,1.70
2023-05-15T02:24:08.032Z,1.58
2023-05-15T02:26:51.313Z,1.80
2023-05-15T02:29:23.619Z,1.55
2023-05-15T02:32:12.124Z,1.35
2023-05-15T02:35:04.645Z,1.48
2023-05-15T02:37:38.053Z,1.38
2023-05-15T02:40:11.528Z,1.50
2023-05-15T02:42:42.696Z,1.40
2023-05-15T02:45:12.169Z,1.40
2023-05-15T02:47:41.338Z,1.90
2023-05-15T02:50:11.299Z,1.50
2023-05-15T02:52:39.249Z,1.42
2023-05-15T02:55:08.233Z,1.33
2023-05-15T02:57:36.091Z,1.35
2023-05-15T03:00:07.675Z,1.40
2023-05-15T03:02:35.635Z,1.42
2023-05-15T03:05:03.940Z,1.15
2023-05-15T03:07:32.377Z,1.10
2023-05-15T03:10:00.892Z,1.40
2023-05-15T03:12:28.918Z,1.20
2023-05-15T03:14:57.406Z,1.00
2023-05-15T03:17:26.153Z,1.20
2023-05-15T03:19:54.711Z,1.48
2023-05-15T03:22:22.824Z,1.23
2023-05-15T03:24:51.317Z,1.40
2023-05-15T03:27:21.251Z,1.08
2023-05-15T03:29:51.308Z,1.10
2023-05-15T03:32:20.078Z,1.30
2023-05-15T03:34:48.532Z,1.10
2023-05-15T03:37:19.115Z,1.15
2023-05-15T03:39:47.688Z,1.10
2023-05-15T03:42:15.608Z,1.20
2023-05-15T03:44:43.894Z,1.25
2023-05-15T03:47:14.077Z,1.30
2023-05-15T03:49:42.742Z,1.27
2023-05-15T03:52:10.964Z,1.27
2023-05-15T03:54:41.037Z,1.30
2023-05-15T03:57:08.873Z,1.35
2023-05-15T03:59:38.325Z,1.42
2023-05-15T04:02:06.560Z,1.40
2023-05-15T04:04:36.614Z,1.40
2023-05-15T04:07:05.898Z,1.70
2023-05-15T04:09:34.200Z,1.50
2023-05-15T04:12:02.040Z,1.30
2023-05-15T04:14:30.336Z,1.45
2023-05-15T04:16:58.182Z,1.45
2023-05-15T04:19:26.562Z,1.35
2023-05-15T04:21:55.355Z,1.30
2023-05-15T04:24:23.577Z,1.45
2023-05-15T04:26:51.527Z,1.40
2023-05-15T04:29:19.917Z,1.63
2023-05-15T04:31:47.817Z,1.70
2023-05-15T04:34:17.304Z,1.42
2023-05-15T04:36:45.765Z,1.50
2023-05-15T04:39:14.210Z,1.60
2023-05-15T04:41:42.016Z,1.45
2023-05-15T04:44:14.503Z,1.60
2023-05-15T04:46:42.569Z,1.42
2023-05-15T04:49:10.830Z,1.50
2023-05-15T04:51:39.530Z,1.48
2023-05-15T04:54:08.122Z,1.70
2023-05-15T04:56:36.491Z,1.48
2023-05-15T04:59:05.390Z,1.50
2023-05-15T05:01:34.550Z,1.50
2023-05-15T05:04:02.864Z,1.80
2023-05-15T05:06:31.012Z,1.48
2023-05-15T05:09:00.312Z,1.48
2023-05-15T05:11:28.088Z,1.40
2023-05-15T05:13:56.268Z,1.65
2023-05-15T05:16:24.329Z,1.48
2023-05-15T05:18:52.565Z,1.40
2023-05-15T05:21:20.439Z,1.40
2023-05-15T05:23:48.708Z,1.38
2023-05-15T05:26:16.520Z,1.23
2023-05-15T05:28:44.747Z,1.60
2023-05-15T05:31:12.795Z,1.40
2023-05-15T05:33:41.437Z,1.23
2023-05-15T05:36:11.279Z,1.30
2023-05-15T05:38:40.815Z,1.42
2023-05-15T05:41:08.729Z,1.50
2023-05-15T05:43:37.009Z,1.50
2023-05-15T05:46:04.854Z,1.40
2023-05-15T05:48:33.334Z,1.30
2023-05-15T05:51:01.864Z,1.40
2023-05-15T05:53:30.044Z,1.20
2023-05-15T05:55:57.943Z,1.23
2023-05-15T05:58:26.771Z,1.48
2023-05-15T06:00:55.639Z,2.03
2023-05-15T06:03:24.830Z,2.42
2023-05-15T06:05:54.042Z,1.40
2023-05-15T06:08:23.081Z,1.50
2023-05-15T06:10:50.847Z,1.60
2023-05-15T06:13:19.317Z,4.15
2023-05-15T06:15:47.717Z,1.33
2023-05-15T06:18:15.878Z,1.30
2023-05-15T06:20:44.048Z,1.42
2023-05-15T06:23:12.182Z,1.33
2023-05-15T06:25:40.445Z,1.05
2023-05-15T06:28:08.810Z,1.30
2023-05-15T06:30:36.601Z,1.10
2023-05-15T06:33:04.903Z,1.08
2023-05-15T06:35:32.919Z,1.13
2023-05-15T06:38:01.192Z,1.20
2023-05-15T06:40:29.583Z,1.20
2023-05-15T06:42:59.057Z,1.30
2023-05-15T06:45:28.185Z,1.20
2023-05-15T06:47:58.502Z,1.20
2023-05-15T06:50:27.984Z,1.20
2023-05-15T06:52:56.214Z,1.25
2023-05-15T06:55:24.207Z,1.10
2023-05-15T06:57:52.566Z,1.20
2023-05-15T07:00:20.792Z,1.00
2023-05-15T07:02:49.258Z,1.30
2023-05-15T07:05:18.038Z,1.02
2023-05-15T07:07:46.187Z,1.13
2023-05-15T07:10:14.256Z,1.23
2023-05-15T07:12:42.511Z,1.23
2023-05-15T07:15:10.935Z,1.40
2023-05-15T07:17:39.203Z,1.00
2023-05-15T07:20:07.749Z,0.80
2023-05-15T07:22:44.608Z,1.10
2023-05-15T07:25:20.438Z,1.02
2023-05-15T07:27:48.623Z,1.20
2023-05-15T07:30:16.609Z,2.10
2023-05-15T07:32:44.925Z,1.35
2023-05-15T07:35:14.271Z,1.20
2023-05-15T07:37:42.456Z,1.40
2023-05-15T07:40:10.867Z,1.30
2023-05-15T07:42:40.116Z,1.35
2023-05-15T07:45:08.541Z,1.30
2023-05-15T07:47:36.776Z,1.30
2023-05-15T07:50:05.047Z,1.25
2023-05-15T07:52:33.284Z,1.27
2023-05-15T07:55:01.636Z,1.17
2023-05-15T07:57:32.296Z,1.10
2023-05-15T08:00:00.183Z,1.10
2023-05-15T08:02:28.635Z,1.30
2023-05-15T08:04:56.718Z,1.30
2023-05-15T08:07:25.104Z,1.40
2023-05-15T08:09:52.964Z,1.20
2023-05-15T08:12:22.393Z,1.35
2023-05-15T08:14:55.397Z,1.42
2023-05-15T08:17:26.263Z,1.60
2023-05-15T08:19:54.512Z,1.80
2023-05-15T08:22:23.048Z,1.30
2023-05-15T08:24:50.930Z,1.48
2023-05-15T08:27:20.768Z,1.70
2023-05-15T08:29:48.782Z,1.70
2023-05-15T08:32:16.889Z,1.70
2023-05-15T08:34:45.107Z,1.70
2023-05-15T08:37:13.558Z,2.10
2023-05-15T08:39:41.668Z,1.73
2023-05-15T08:42:20.360Z,1.95
2023-05-15T08:44:48.901Z,1.65
2023-05-15T08:47:19.846Z,1.90
2023-05-15T08:50:06.054Z,1.60
2023-05-15T08:52:36.311Z,2.20
2023-05-15T08:55:05.290Z,1.90
2023-05-15T08:57:36.454Z,1.50
2023-05-15T09:00:15.135Z,2.00
2023-05-15T09:02:43.565Z,2.00
2023-05-15T09:05:12.351Z,2.10
2023-05-15T09:07:42.336Z,1.90
2023-05-15T09:10:10.695Z,2.03
2023-05-15T09:12:43.958Z,1.75
2023-05-15T09:15:18.233Z,1.88
2023-05-15T09:17:47.273Z,1.73
2023-05-15T09:20:28.951Z,1.95
2023-05-15T09:23:02.024Z,2.00
2023-05-15T09:25:42.877Z,2.30
2023-05-15T09:28:25.848Z,2.03
2023-05-15T09:31:04.804Z,2.08
2023-05-15T09:33:35.637Z,1.95
2023-05-15T09:36:05.180Z,2.58
2023-05-15T09:38:34.712Z,2.42
2023-05-15T09:41:08.630Z,2.42
2023-05-15T09:43:41.602Z,2.20
2023-05-15T09:46:12.626Z,2.55
2023-05-15T09:48:41.299Z,2.50
2023-05-15T09:51:17.609Z,2.40
2023-05-15T09:53:52.279Z,2.22
2023-05-15T09:56:20.439Z,2.90
2023-05-15T09:58:57.208Z,2.10
2023-05-15T10:01:26.213Z,2.42
2023-05-15T10:04:03.939Z,2.35
2023-05-15T10:06:41.189Z,2.30
2023-05-15T10:09:11.917Z,2.50
2023-05-15T10:11:44.896Z,2.30
2023-05-15T10:14:14.610Z,2.03
2023-05-15T10:16:42.601Z,2.10
2023-05-15T10:19:12.469Z,2.00
2023-05-15T10:21:42.441Z,2.15
2023-05-15T10:24:12.022Z,2.10
2023-05-15T10:26:43.610Z,2.00
2023-05-15T10:29:14.765Z,2.17
2023-05-15T10:31:43.423Z,2.45
2023-05-15T10:34:12.382Z,2.45
2023-05-15T10:36:40.362Z,2.67
2023-05-15T10:39:08.952Z,2.50
2023-05-15T10:41:39.200Z,2.25
2023-05-15T10:44:07.923Z,3.13
2023-05-15T10:46:37.267Z,2.40
2023-05-15T10:49:06.041Z,2.22
2023-05-15T10:51:36.490Z,2.05
2023-05-15T10:54:06.514Z,2.38
2023-05-15T10:56:37.629Z,1.83
2023-05-15T10:59:08.757Z,1.80
2023-05-15T11:01:40.278Z,2.15
2023-05-15T11:04:11.256Z,2.10
2023-05-15T11:06:43.073Z,2.25
2023-05-15T11:09:36.630Z,2.45
2023-05-15T11:12:06.999Z,2.05
2023-05-15T11:14:55.177Z,2.28
2023-05-15T11:17:24.677Z,2.35
2023-05-15T11:19:53.117Z,2.13
2023-05-15T11:22:26.102Z,2.50
2023-05-15T11:25:09.124Z,2.47
2023-05-15T11:27:40.686Z,2.67
2023-05-15T11:30:11.578Z,3.03
2023-05-15T11:32:52.180Z,2.55
2023-05-15T11:35:28.954Z,2.72
2023-05-15T11:38:11.027Z,2.25
2023-05-15T11:40:52.887Z,2.40
2023-05-15T11:43:29.514Z,2.53
2023-05-15T11:46:04.216Z,2.30
2023-05-15T11:48:38.317Z,2.65
2023-05-15T11:51:17.664Z,2.42
2023-05-15T11:53:46.366Z,2.60
2023-05-15T11:56:26.271Z,2.30
2023-05-15T11:59:02.594Z,2.55
2023-05-15T12:01:40.781Z,2.35
2023-05-15T12:04:16.733Z,2.20
2023-05-15T12:06:47.784Z,2.38
2023-05-15T12:09:19.725Z,2.40
2023-05-15T12:11:49.809Z,2.65
2023-05-15T12:14:17.697Z,2.60
2023-05-15T12:16:45.951Z,2.95
2023-05-15T12:19:13.899Z,2.60
2023-05-15T12:21:47.031Z,2.75
2023-05-15T12:24:15.128Z,2.97
2023-05-15T12:26:43.527Z,2.60
2023-05-15T12:29:11.557Z,5.65
2023-05-15T12:31:39.975Z,2.78
2023-05-15T12:34:08.152Z,2.58
2023-05-15T12:36:36.587Z,2.70
2023-05-15T12:39:08.237Z,2.60
2023-05-15T12:41:40.300Z,7.90
2023-05-15T12:44:16.770Z,3.17
2023-05-15T12:46:46.430Z,3.17
2023-05-15T12:49:14.416Z,2.75
2023-05-15T12:51:44.148Z,2.47
2023-05-15T12:54:19.581Z,4.35
2023-05-15T12:56:48.825Z,3.17
2023-05-15T12:59:16.778Z,2.63
2023-05-15T13:01:45.552Z,2.90
2023-05-15T13:04:13.558Z,2.95
2023-05-15T13:06:46.822Z,2.60
2023-05-15T13:09:22.987Z,2.75
2023-05-15T13:11:51.469Z,2.90
2023-05-15T13:14:19.985Z,3.00
2023-05-15T13:16:48.237Z,2.78
2023-05-15T13:19:17.143Z,2.75
2023-05-15T13:21:50.446Z,2.78
2023-05-15T13:24:18.414Z,2.80
2023-05-15T13:26:47.600Z,2.75
2023-05-15T13:29:15.513Z,2.70
2023-05-15T13:31:43.911Z,2.67
2023-05-15T13:34:11.922Z,2.60
2023-05-15T13:36:40.231Z,3.15
2023-05-15T13:39:08.501Z,2.78
2023-05-15T13:41:38.188Z,3.00
2023-05-15T13:44:08.864Z,2.92
2023-05-15T13:46:37.229Z,2.47
2023-05-15T13:49:05.736Z,2.85
2023-05-15T13:51:34.034Z,3.10
2023-05-15T13:54:02.079Z,3.10
2023-05-15T13:56:30.363Z,3.28
2023-05-15T13:58:58.151Z,2.78
2023-05-15T14:01:26.600Z,2.97
2023-05-15T14:03:54.517Z,3.20
2023-05-15T14:06:22.800Z,2.92
2023-05-15T14:08:50.600Z,2.92
2023-05-15T14:11:19.005Z,4.85
2023-05-15T14:13:47.690Z,3.30
2023-05-15T14:16:16.006Z,3.75
2023-05-15T14:18:43.852Z,3.25
2023-05-15T14:21:16.813Z,2.72
2023-05-15T14:23:44.722Z,2.67
2023-05-15T14:26:12.800Z,2.72
2023-05-15T14:28:40.647Z,2.70
2023-05-15T14:31:09.167Z,2.70
2023-05-15T14:33:36.895Z,2.70
2023-05-15T14:36:05.429Z,3.40
2023-05-15T14:38:33.211Z,3.00
2023-05-15T14:41:01.342Z,2.70
2023-05-15T14:43:30.716Z,2.83
2023-05-15T14:45:59.186Z,2.50
2023-05-15T14:48:32.256Z,3.00
2023-05-15T14:51:01.362Z,3.00
2023-05-15T14:53:29.200Z,2.95
2023-05-15T14:55:58.935Z,3.20
2023-05-15T14:58:27.185Z,3.35
2023-05-15T15:00:59.339Z,3.20
2023-05-15T15:03:28.973Z,3.20
2023-05-15T15:05:58.299Z,3.42
2023-05-15T15:08:26.289Z,2.60
2023-05-15T15:10:54.453Z,2.80
2023-05-15T15:13:22.416Z,2.80
2023-05-15T15:15:52.037Z,2.92
2023-05-15T15:18:21.565Z,3.53
2023-05-15T15:20:49.772Z,2.70
2023-05-15T15:23:18.398Z,2.58
2023-05-15T15:25:46.495Z,2.50
2023-05-15T15:28:14.243Z,2.80
2023-05-15T15:30:42.440Z,3.05
2023-05-15T15:33:10.353Z,2.70
2023-05-15T15:35:38.480Z,2.78
2023-05-15T15:38:06.655Z,2.95
2023-05-15T15:40:35.782Z,2.50
2023-05-15T15:43:03.530Z,2.90
2023-05-15T15:45:31.710Z,3.05
2023-05-15T15:47:59.737Z,2.83
2023-05-15T15:50:28.079Z,3.33
2023-05-15T15:52:56.568Z,2.55
2023-05-15T15:55:25.057Z,3.00
2023-05-15T15:57:52.922Z,2.83
2023-05-15T16:00:21.284Z,2.70
2023-05-15T16:02:49.165Z,3.00
2023-05-15T16:05:17.366Z,2.70
2023-05-15T16:07:45.332Z,2.97
2023-05-15T16:10:13.700Z,3.13
2023-05-15T16:12:42.799Z,2.90
2023-05-15T16:17:45.673Z,2.80
2023-05-15T16:20:14.006Z,7.13
2023-05-15T16:22:43.332Z,3.33
2023-05-15T16:25:11.747Z,3.38
2023-05-15T16:27:39.774Z,3.20
2023-05-15T16:30:09.538Z,3.25
2023-05-15T16:32:37.512Z,2.70
2023-05-15T16:35:06.285Z,2.90
2023-05-15T16:37:34.227Z,3.00
2023-05-15T16:40:03.069Z,3.05
2023-05-15T16:42:36.248Z,3.60
2023-05-15T16:45:05.883Z,2.85
2023-05-15T16:47:34.217Z,3.30
2023-05-15T16:50:04.180Z,3.17
2023-05-15T16:52:33.238Z,3.35
2023-05-15T16:55:01.953Z,3.20
2023-05-15T16:57:31.136Z,2.90
2023-05-15T16:59:59.405Z,2.80
2023-05-15T17:02:27.427Z,2.95
2023-05-15T17:04:56.200Z,3.25
2023-05-15T17:07:24.284Z,3.28
2023-05-15T17:09:52.682Z,2.80
2023-05-15T17:12:20.819Z,2.60
2023-05-15T17:14:49.273Z,2.50
2023-05-15T17:17:17.799Z,5.70
2023-05-15T17:19:46.065Z,3.22
2023-05-15T17:22:14.566Z,3.03
2023-05-15T17:27:18.720Z,2.97
2023-05-15T17:29:48.116Z,2.88
2023-05-15T17:32:17.207Z,2.67
2023-05-15T17:34:46.313Z,2.90
2023-05-15T17:37:15.078Z,2.42
2023-05-15T17:39:43.436Z,2.65
2023-05-15T17:42:11.420Z,2.95
2023-05-15T17:44:39.609Z,3.00
2023-05-15T17:47:08.719Z,3.17
2023-05-15T17:49:38.119Z,3.08
2023-05-15T17:52:08.322Z,3.20
2023-05-15T17:54:36.704Z,2.85
2023-05-15T17:57:05.289Z,2.92
2023-05-15T17:59:33.505Z,2.67
2023-05-15T18:02:03.210Z,3.08
2023-05-15T18:04:31.561Z,2.63
2023-05-15T18:06:59.374Z,3.22
2023-05-15T18:09:27.616Z,3.25
2023-05-15T18:11:56.844Z,2.63
2023-05-15T18:14:25.153Z,2.60
2023-05-15T18:16:53.073Z,2.88
2023-05-15T18:19:21.513Z,3.00
2023-05-15T18:21:49.447Z,2.67
2023-05-15T18:24:17.632Z,2.92
2023-05-15T18:26:45.794Z,3.22
2023-05-15T18:29:14.008Z,3.10
2023-05-15T18:31:41.897Z,4.13
2023-05-15T18:34:10.681Z,2.90
2023-05-15T18:36:38.427Z,3.60
2023-05-15T18:39:07.466Z,3.40
2023-05-15T18:41:35.517Z,3.58
2023-05-15T18:44:03.929Z,2.88
2023-05-15T18:46:32.400Z,3.22
2023-05-15T18:49:00.802Z,3.40
2023-05-15T18:51:29.419Z,3.25
2023-05-15T18:53:57.541Z,3.45
2023-05-15T18:56:25.594Z,3.30
2023-05-15T18:58:54.985Z,4.85
2023-05-15T19:01:22.801Z,5.35
2023-05-15T19:03:51.313Z,3.20
2023-05-15T19:06:20.501Z,3.40
2023-05-15T19:08:49.203Z,4.20
2023-05-15T19:11:17.619Z,4.10
2023-05-15T19:13:46.383Z,3.30
2023-05-15T19:16:14.724Z,3.28
2023-05-15T19:18:43.160Z,3.50
2023-05-15T19:21:11.109Z,3.50
2023-05-15T19:23:39.364Z,3.40
2023-05-15T19:26:07.272Z,3.80
2023-05-15T19:28:35.631Z,3.75
2023-05-15T19:31:04.702Z,3.97
2023-05-15T19:33:34.246Z,3.78
2023-05-15T19:36:02.751Z,4.00
2023-05-15T19:38:31.002Z,4.10
2023-05-15T19:40:59.017Z,3.65
2023-05-15T19:43:27.984Z,3.75
2023-05-15T19:45:55.965Z,4.15
2023-05-15T19:48:25.281Z,3.97
2023-05-15T19:50:53.290Z,3.80
2023-05-15T19:53:21.901Z,3.90
2023-05-15T19:55:50.786Z,3.90
2023-05-15T19:58:23.544Z,4.05
2023-05-15T20:00:53.087Z,4.15
2023-05-15T20:03:22.467Z,4.55
2023-05-15T20:05:53.949Z,4.18
2023-05-15T20:08:22.589Z,3.78
2023-05-15T20:10:52.717Z,3.92
2023-05-15T20:13:22.389Z,4.15
2023-05-15T20:15:58.743Z,4.40
2023-05-15T20:18:32.131Z,4.13
2023-05-15T20:21:02.552Z,4.10
2023-05-15T20:23:31.353Z,4.18
2023-05-15T20:25:59.955Z,4.75
2023-05-15T20:28:29.269Z,4.35
2023-05-15T20:30:57.962Z,4.45
2023-05-15T20:33:31.966Z,4.18
2023-05-15T20:36:00.746Z,4.40
2023-05-15T20:38:29.413Z,4.60
2023-05-15T20:40:57.605Z,4.82
2023-05-15T20:43:27.168Z,4.60
2023-05-15T20:45:55.974Z,4.53
2023-05-15T20:48:25.521Z,4.72
2023-05-15T20:50:54.122Z,4.78
2023-05-15T20:53:22.467Z,4.28
2023-05-15T20:55:50.296Z,4.53
2023-05-15T20:58:18.748Z,4.13
2023-05-15T21:00:46.549Z,4.10
2023-05-15T21:03:15.443Z,4.35
2023-05-15T21:05:43.334Z,4.38
2023-05-15T21:08:11.826Z,4.82
2023-05-15T21:10:40.766Z,4.90
2023-05-15T21:13:09.362Z,5.13
2023-05-15T21:15:37.707Z,5.43
2023-05-15T21:18:06.016Z,5.25
2023-05-15T21:20:35.202Z,5.07
2023-05-15T21:23:03.715Z,4.90
2023-05-15T21:25:32.906Z,4.72
2023-05-15T21:28:02.587Z,4.80
2023-05-15T21:30:32.203Z,5.30
2023-05-15T21:33:00.602Z,4.90
2023-05-15T21:35:29.230Z,4.90
2023-05-15T21:37:58.008Z,4.80
2023-05-15T21:40:26.004Z,4.88
2023-05-15T21:42:54.637Z,4.93
2023-05-15T21:45:22.587Z,5.20
2023-05-15T21:47:50.884Z,5.68
2023-05-15T21:50:18.738Z,5.68
2023-05-15T21:52:47.115Z,5.55
2023-05-15T21:55:15.279Z,5.85
2023-05-15T21:57:43.430Z,6.00
2023-05-15T22:00:11.654Z,5.63
2023-05-15T22:02:40.135Z,5.05
2023-05-15T22:05:08.807Z,6.35
2023-05-15T22:07:37.007Z,6.18
2023-05-15T22:10:05.500Z,6.00
2023-05-15T22:12:34.520Z,6.35
2023-05-15T22:15:02.740Z,5.50
2023-05-15T22:17:32.940Z,5.75
2023-05-15T22:20:08.332Z,5.30
2023-05-15T22:22:36.855Z,5.75
2023-05-15T22:25:05.918Z,5.65
2023-05-15T22:27:34.357Z,6.00
2023-05-15T22:30:03.048Z,6.55
2023-05-15T22:32:33.592Z,6.03
2023-05-15T22:35:03.897Z,6.20
2023-05-15T22:37:33.119Z,6.40
2023-05-15T22:40:01.273Z,6.03
2023-05-15T22:42:32.887Z,6.40
2023-05-15T22:45:02.415Z,6.47
2023-05-15T22:47:31.776Z,5.82
2023-05-15T22:50:00.086Z,6.13
2023-05-15T22:52:28.434Z,6.70
2023-05-15T22:54:56.270Z,6.78
2023-05-15T22:57:24.557Z,6.47
2023-05-15T22:59:52.372Z,6.45
2023-05-15T23:02:23.634Z,6.32
2023-05-15T23:04:51.483Z,6.15
2023-05-15T23:07:20.876Z,6.20
2023-05-15T23:09:49.162Z,6.80
2023-05-15T23:12:17.360Z,7.10
2023-05-15T23:14:45.448Z,6.20
2023-05-15T23:17:13.649Z,6.47
2023-05-15T23:19:41.453Z,6.72
2023-05-15T23:22:09.616Z,6.40
2023-05-15T23:24:40.020Z,6.88
2023-05-15T23:27:08.515Z,6.63
2023-05-15T23:29:36.890Z,6.70
2023-05-15T23:32:06.642Z,6.97
2023-05-15T23:34:35.010Z,6.78
2023-05-15T23:37:03.121Z,6.43
2023-05-15T23:39:30.974Z,6.75
2023-05-15T23:42:00.336Z,7.25
2023-05-15T23:44:28.539Z,6.80
2023-05-15T23:46:59.857Z,6.35
2023-05-15T23:49:28.254Z,6.55
2023-05-15T23:51:56.472Z,6.57
2023-05-15T23:54:24.279Z,7.82
2023-05-15T23:56:52.506Z,7.15
2023-05-15T23:59:20.747Z,7.20
